Terminal Aerodrome Forecast
Issued by NWS Twin Cities, MN

Current Version | Previous Version | Text Only | Print | Product List | Glossary On
Versions: 1 2 3 4 5 6 7 8 9 10 11 12 13 14 15 16 17 18 19 20 21
240
FTUS43 KMPX 082320
TAFEAU
TAF
KEAU 082320Z 0900/0924 31011KT 5SM -SN OVC030
     FM090400 32012KT 6SM -SN OVC025
     FM091200 32013G21KT P6SM BKN025
     FM091800 32013G20KT P6SM FEW030 SCT250=

USA.gov is the U.S. government's official web portal to all federal, state and local government web resources and services.